createdAt,value
2022-11-25T00:01:26.445Z,3.33
2022-11-25T00:03:56.338Z,2.99
2022-11-25T00:06:29.509Z,3.08
2022-11-25T00:09:01.947Z,3.31
2022-11-25T00:11:29.687Z,3.41
2022-11-25T00:13:58.401Z,3.40
2022-11-25T00:16:25.729Z,2.95
2022-11-25T00:18:54.195Z,3.19
2022-11-25T00:21:23.755Z,3.18
2022-11-25T00:24:00.204Z,3.15
2022-11-25T00:26:29.486Z,3.34
2022-11-25T00:28:59.637Z,3.20
2022-11-25T00:31:30.099Z,3.23
2022-11-25T00:33:57.416Z,3.08
2022-11-25T00:36:27.041Z,3.02
2022-11-25T00:39:00.031Z,3.34
2022-11-25T00:41:28.428Z,3.10
2022-11-25T00:43:55.009Z,3.23
2022-11-25T00:46:21.683Z,3.29
2022-11-25T00:48:48.369Z,3.23
2022-11-25T00:51:14.949Z,3.12
2022-11-25T00:53:41.600Z,3.85
2022-11-25T00:56:08.179Z,3.37
2022-11-25T00:58:34.796Z,3.17
2022-11-25T01:01:02.294Z,3.13
2022-11-25T01:03:28.953Z,3.19
2022-11-25T01:05:55.560Z,3.20
2022-11-25T01:08:22.160Z,3.45
2022-11-25T01:10:48.780Z,3.21
2022-11-25T01:13:15.336Z,3.37
2022-11-25T01:15:41.925Z,3.19
2022-11-25T01:18:08.493Z,3.07
2022-11-25T01:20:35.077Z,3.13
2022-11-25T01:23:01.752Z,3.27
2022-11-25T01:25:28.344Z,3.26
2022-11-25T01:27:54.970Z,3.34
2022-11-25T01:30:21.580Z,3.23
2022-11-25T01:32:48.192Z,3.25
2022-11-25T01:35:14.828Z,3.54
2022-11-25T01:37:41.487Z,3.46
2022-11-25T01:40:08.747Z,3.52
2022-11-25T01:42:42.080Z,3.64
2022-11-25T01:45:28.355Z,3.51
2022-11-25T01:48:03.005Z,3.97
2022-11-25T01:50:33.600Z,4.04
2022-11-25T01:53:05.781Z,4.10
2022-11-25T01:55:36.572Z,4.44
2022-11-25T01:58:15.808Z,4.25
2022-11-25T02:00:43.122Z,4.46
2022-11-25T02:03:10.188Z,4.64
2022-11-25T02:05:52.188Z,4.36
2022-11-25T02:08:20.996Z,4.41
2022-11-25T02:10:47.849Z,4.40
2022-11-25T02:13:14.806Z,4.25
2022-11-25T02:15:41.431Z,4.13
2022-11-25T02:18:09.813Z,4.17
2022-11-25T02:20:39.340Z,4.16
2022-11-25T02:23:08.942Z,4.09
2022-11-25T02:25:38.658Z,4.15
2022-11-25T02:28:09.460Z,4.18
2022-11-25T02:30:36.333Z,4.19
2022-11-25T02:33:03.623Z,4.32
2022-11-25T02:35:42.423Z,4.01
2022-11-25T02:38:15.009Z,4.23
2022-11-25T02:40:58.063Z,4.06
2022-11-25T02:43:25.356Z,4.37
2022-11-25T02:45:58.635Z,4.38
2022-11-25T02:48:52.947Z,4.38
2022-11-25T02:51:17.848Z,4.49
2022-11-25T02:53:44.686Z,4.55
2022-11-25T02:56:13.707Z,4.45
2022-11-25T02:58:40.870Z,4.56
2022-11-25T03:01:08.001Z,4.52
2022-11-25T03:03:35.295Z,4.40
2022-11-25T03:06:02.396Z,4.23
2022-11-25T03:08:28.993Z,4.48
2022-11-25T03:10:56.063Z,4.48
2022-11-25T03:13:22.837Z,4.83
2022-11-25T03:15:49.416Z,4.82
2022-11-25T03:18:16.030Z,4.82
2022-11-25T03:20:42.653Z,4.54
2022-11-25T03:23:09.250Z,4.70
2022-11-25T03:25:36.476Z,4.50
2022-11-25T03:28:04.300Z,4.68
2022-11-25T03:30:31.156Z,4.40
2022-11-25T03:32:57.751Z,4.94
2022-11-25T03:35:24.355Z,5.06
2022-11-25T03:37:50.959Z,4.81
2022-11-25T03:40:17.791Z,4.73
2022-11-25T03:42:44.696Z,4.84
2022-11-25T03:45:13.135Z,5.01
2022-11-25T03:47:43.078Z,5.06
2022-11-25T03:50:12.051Z,4.94
2022-11-25T03:52:38.856Z,5.09
2022-11-25T03:55:06.752Z,4.86
2022-11-25T03:57:33.886Z,4.64
2022-11-25T04:00:00.528Z,5.01
2022-11-25T04:02:27.210Z,4.59
2022-11-25T04:04:53.898Z,4.69
2022-11-25T04:07:20.780Z,4.93
2022-11-25T04:09:47.483Z,4.69
2022-11-25T04:12:14.151Z,4.99
2022-11-25T04:15:00.773Z,4.84
2022-11-25T04:17:47.442Z,5.00
2022-11-25T04:20:15.019Z,5.31
2022-11-25T04:22:41.757Z,5.03
2022-11-25T04:25:09.533Z,4.80
2022-11-25T04:27:36.296Z,4.81
2022-11-25T04:30:03.138Z,4.41
2022-11-25T04:32:29.776Z,4.86
2022-11-25T04:34:56.415Z,4.38
2022-11-25T04:37:23.069Z,4.63
2022-11-25T04:39:49.763Z,4.33
2022-11-25T04:42:16.465Z,4.59
2022-11-25T04:44:51.947Z,4.52
2022-11-25T04:47:29.444Z,4.46
2022-11-25T04:49:56.283Z,4.25
2022-11-25T04:52:22.977Z,4.14
2022-11-25T04:54:49.641Z,4.13
2022-11-25T04:57:16.368Z,3.82
2022-11-25T04:59:44.124Z,3.36
2022-11-25T05:02:23.489Z,3.66
2022-11-25T05:04:54.960Z,3.48
2022-11-25T05:07:24.435Z,3.22
2022-11-25T05:09:51.109Z,3.12
2022-11-25T05:12:21.696Z,3.43
2022-11-25T05:14:49.216Z,2.96
2022-11-25T05:17:22.087Z,2.79
2022-11-25T05:19:49.802Z,2.86
2022-11-25T05:22:20.392Z,2.56
2022-11-25T05:24:47.304Z,2.46
2022-11-25T05:27:15.778Z,2.71
2022-11-25T05:29:42.573Z,2.55
2022-11-25T05:32:10.384Z,2.49
2022-11-25T05:34:38.113Z,2.78
2022-11-25T05:37:05.652Z,2.40
2022-11-25T05:39:32.393Z,2.26
2022-11-25T05:41:59.420Z,2.36
2022-11-25T05:44:26.521Z,2.76
2022-11-25T05:46:53.357Z,2.36
2022-11-25T05:49:20.718Z,2.15
2022-11-25T05:51:47.934Z,2.14
2022-11-25T05:54:14.744Z,2.25
2022-11-25T05:56:41.436Z,2.79
2022-11-25T05:59:08.090Z,2.70
2022-11-25T06:01:34.761Z,2.97
2022-11-25T06:04:03.685Z,2.74
2022-11-25T06:06:31.184Z,2.76
2022-11-25T06:08:57.920Z,2.73
2022-11-25T06:11:24.856Z,2.42
2022-11-25T06:13:51.486Z,2.53
2022-11-25T06:16:21.627Z,3.04
2022-11-25T06:18:48.567Z,3.14
2022-11-25T06:21:15.636Z,2.35
2022-11-25T06:23:42.720Z,2.56
2022-11-25T06:26:22.878Z,2.76
2022-11-25T06:28:53.798Z,2.81
2022-11-25T06:31:23.496Z,2.81
2022-11-25T06:33:52.312Z,2.61
2022-11-25T06:36:20.821Z,2.72
2022-11-25T06:38:51.022Z,3.38
2022-11-25T06:41:17.893Z,3.01
2022-11-25T06:43:44.574Z,2.55
2022-11-25T06:46:21.374Z,2.55
2022-11-25T06:48:50.924Z,2.39
2022-11-25T06:51:17.737Z,2.36
2022-11-25T06:53:45.098Z,2.48
2022-11-25T06:56:15.947Z,3.03
2022-11-25T06:58:43.838Z,2.96
2022-11-25T07:01:16.185Z,2.72
2022-11-25T07:03:43.820Z,3.14
2022-11-25T07:06:13.367Z,2.97
2022-11-25T07:08:41.534Z,2.84
2022-11-25T07:11:16.030Z,3.12
2022-11-25T07:13:42.715Z,3.52
2022-11-25T07:16:13.826Z,3.48
2022-11-25T07:18:41.469Z,3.52
2022-11-25T07:21:14.915Z,3.41
2022-11-25T07:23:43.936Z,3.22
2022-11-25T07:26:14.000Z,2.94
2022-11-25T07:28:41.706Z,2.54
2022-11-25T07:31:23.984Z,2.45
2022-11-25T07:33:59.949Z,2.21
2022-11-25T07:36:27.696Z,2.12
2022-11-25T07:38:54.580Z,2.12
2022-11-25T07:41:24.136Z,2.25
2022-11-25T07:43:53.804Z,2.17
2022-11-25T07:46:27.065Z,2.10
2022-11-25T07:49:00.839Z,2.02
2022-11-25T07:51:31.261Z,2.10
2022-11-25T07:53:59.705Z,1.96
2022-11-25T07:56:27.776Z,1.94
2022-11-25T07:58:55.558Z,1.97
2022-11-25T08:01:22.346Z,2.13
2022-11-25T08:03:50.934Z,2.42
2022-11-25T08:06:21.422Z,2.19
2022-11-25T08:08:48.956Z,2.36
2022-11-25T08:11:20.523Z,3.68
2022-11-25T08:13:47.586Z,2.30
2022-11-25T08:16:16.902Z,1.98
2022-11-25T08:18:43.727Z,2.20
2022-11-25T08:21:12.951Z,3.11
2022-11-25T08:23:41.607Z,2.38
2022-11-25T08:26:12.596Z,2.39
2022-11-25T08:28:40.996Z,2.97
2022-11-25T08:31:17.052Z,3.40
2022-11-25T08:33:45.040Z,3.94
2022-11-25T08:36:12.468Z,3.37
2022-11-25T08:38:40.609Z,3.89
2022-11-25T08:41:20.447Z,3.60
2022-11-25T08:43:47.585Z,2.70
2022-11-25T08:46:21.801Z,2.63
2022-11-25T08:48:48.867Z,2.67
2022-11-25T08:51:19.457Z,2.78
2022-11-25T08:53:47.320Z,2.59
2022-11-25T08:56:14.695Z,2.39
2022-11-25T08:58:41.307Z,2.32
2022-11-25T09:01:08.186Z,2.27
2022-11-25T09:03:42.300Z,2.34
2022-11-25T09:06:10.246Z,2.44
2022-11-25T09:08:38.139Z,2.18
2022-11-25T09:11:05.553Z,2.27
2022-11-25T09:13:32.271Z,2.57
2022-11-25T09:15:59.808Z,2.72
2022-11-25T09:18:26.964Z,2.58
2022-11-25T09:20:53.923Z,3.05
2022-11-25T09:23:20.792Z,4.21
2022-11-25T09:25:55.821Z,4.53
2022-11-25T09:28:24.165Z,3.56
2022-11-25T09:30:50.999Z,2.93
2022-11-25T09:33:18.953Z,2.74
2022-11-25T09:35:45.926Z,3.06
2022-11-25T09:38:12.582Z,2.82
2022-11-25T09:40:47.958Z,2.75
2022-11-25T09:43:39.048Z,2.59
2022-11-25T09:46:27.435Z,2.60
2022-11-25T09:49:17.704Z,2.77
2022-11-25T09:52:03.059Z,2.77
2022-11-25T09:54:32.675Z,3.03
2022-11-25T09:57:14.386Z,2.66
2022-11-25T09:59:59.758Z,2.79
2022-11-25T10:02:43.882Z,2.88
2022-11-25T10:05:19.864Z,2.99
2022-11-25T10:08:15.626Z,3.01
2022-11-25T10:10:48.663Z,2.82
2022-11-25T10:13:44.731Z,2.96
2022-11-25T10:16:24.106Z,2.91
2022-11-25T10:18:59.855Z,2.93
2022-11-25T10:21:27.545Z,2.94
2022-11-25T10:23:54.203Z,2.94
2022-11-25T10:26:27.053Z,2.55
2022-11-25T10:29:05.917Z,2.67
2022-11-25T10:31:36.632Z,2.73
2022-11-25T10:34:22.869Z,2.59
2022-11-25T10:36:54.184Z,2.63
2022-11-25T10:39:27.909Z,2.59
2022-11-25T10:42:04.809Z,2.88
2022-11-25T10:44:34.773Z,2.44
2022-11-25T10:47:26.645Z,2.54
2022-11-25T10:50:02.064Z,2.56
2022-11-25T10:52:34.095Z,2.62
2022-11-25T10:55:17.612Z,2.94
2022-11-25T10:57:44.747Z,2.60
2022-11-25T11:00:31.366Z,2.55
2022-11-25T11:02:59.967Z,2.34
2022-11-25T11:05:30.644Z,2.46
2022-11-25T11:08:12.600Z,2.66
2022-11-25T11:10:39.835Z,2.81
2022-11-25T11:13:21.696Z,2.40
2022-11-25T11:15:49.115Z,2.17
2022-11-25T11:18:21.598Z,2.32
2022-11-25T11:20:52.490Z,2.21
2022-11-25T11:23:19.575Z,2.19
2022-11-25T11:26:05.885Z,2.44
2022-11-25T11:28:35.496Z,2.26
2022-11-25T11:31:22.558Z,2.17
2022-11-25T11:34:22.417Z,2.31
2022-11-25T11:37:16.215Z,2.42
2022-11-25T11:40:07.348Z,2.75
2022-11-25T11:43:08.852Z,2.54
2022-11-25T11:46:08.509Z,2.58
2022-11-25T11:48:49.961Z,2.78
2022-11-25T11:51:50.268Z,2.53
2022-11-25T11:54:29.381Z,2.51
2022-11-25T11:56:58.193Z,2.17
2022-11-25T11:59:46.264Z,2.39
2022-11-25T12:02:23.596Z,2.71
2022-11-25T12:05:04.734Z,2.66
2022-11-25T12:07:55.815Z,2.35
2022-11-25T12:10:38.395Z,2.45
2022-11-25T12:13:35.831Z,2.51
2022-11-25T12:16:27.267Z,2.53
2022-11-25T12:19:03.073Z,2.72
2022-11-25T12:21:46.795Z,2.56
2022-11-25T12:25:09.390Z,2.63
2022-11-25T12:28:02.112Z,2.88
2022-11-25T12:30:38.439Z,2.48
2022-11-25T12:33:20.001Z,2.79
2022-11-25T12:35:49.543Z,2.40
2022-11-25T12:38:23.341Z,2.85
2022-11-25T12:41:16.163Z,2.68
2022-11-25T12:43:50.548Z,2.90
2022-11-25T12:46:44.656Z,2.43
2022-11-25T12:49:28.644Z,2.44
2022-11-25T12:52:39.358Z,2.72
2022-11-25T12:55:15.091Z,2.12
2022-11-25T12:57:49.064Z,2.41
2022-11-25T13:03:25.026Z,2.24
2022-11-25T13:05:57.498Z,2.12
2022-11-25T13:08:39.157Z,2.24
2022-11-25T13:11:43.866Z,2.16
2022-11-25T13:15:08.322Z,2.12
2022-11-25T13:17:41.918Z,2.14
2022-11-25T13:20:43.695Z,1.83
2022-11-25T13:23:12.984Z,1.79
2022-11-25T13:25:42.365Z,1.75
2022-11-25T13:28:31.002Z,1.91
2022-11-25T13:31:16.152Z,2.09
2022-11-25T13:33:42.800Z,2.14
2022-11-25T13:36:20.705Z,2.18
2022-11-25T13:38:50.012Z,2.41
2022-11-25T13:41:16.570Z,2.82
2022-11-25T13:44:02.053Z,2.52
2022-11-25T13:46:48.426Z,1.98
2022-11-25T13:49:43.208Z,2.00
2022-11-25T13:52:12.931Z,2.10
2022-11-25T13:54:49.440Z,1.95
2022-11-25T13:57:24.507Z,1.99
2022-11-25T13:59:57.935Z,1.88
2022-11-25T14:02:30.638Z,1.85
2022-11-25T14:05:40.054Z,1.84
2022-11-25T14:08:18.792Z,2.24
2022-11-25T14:11:09.629Z,2.51
2022-11-25T14:14:01.287Z,2.52
2022-11-25T14:16:41.172Z,2.92
2022-11-25T14:22:42.930Z,2.16
2022-11-25T14:25:28.650Z,2.59
2022-11-25T14:28:15.124Z,2.73
2022-11-25T14:30:53.572Z,2.31
2022-11-25T14:33:35.018Z,2.08
2022-11-25T14:36:11.360Z,1.97
2022-11-25T14:38:57.308Z,2.36
2022-11-25T14:41:32.021Z,2.96
2022-11-25T14:44:05.959Z,3.03
2022-11-25T14:46:32.611Z,3.01
2022-11-25T14:49:03.281Z,2.80
2022-11-25T14:51:37.771Z,2.68
2022-11-25T14:54:08.892Z,2.61
2022-11-25T14:56:37.513Z,2.60
2022-11-25T14:59:09.197Z,2.59
2022-11-25T15:01:38.294Z,2.50
2022-11-25T15:04:12.412Z,2.34
2022-11-25T15:06:43.052Z,2.72
2022-11-25T15:09:32.086Z,2.78
2022-11-25T15:12:11.560Z,3.13
2022-11-25T15:14:43.396Z,3.14
2022-11-25T15:17:27.134Z,2.99
2022-11-25T15:19:57.572Z,2.94
2022-11-25T15:22:24.984Z,3.07
2022-11-25T15:24:55.901Z,3.07
2022-11-25T15:27:26.474Z,4.68
2022-11-25T15:29:55.380Z,3.40
2022-11-25T15:32:21.931Z,2.79
2022-11-25T15:34:51.249Z,2.90
2022-11-25T15:37:18.286Z,2.77
2022-11-25T15:39:45.013Z,2.60
2022-11-25T15:42:24.040Z,2.91
2022-11-25T15:44:54.501Z,4.06
2022-11-25T15:47:28.141Z,5.51
2022-11-25T15:50:00.818Z,3.69
2022-11-25T15:52:38.901Z,3.05
2022-11-25T15:55:18.376Z,2.91
2022-11-25T15:57:51.230Z,2.85
2022-11-25T16:00:21.318Z,2.95
2022-11-25T16:02:51.821Z,3.00
2022-11-25T16:05:31.677Z,2.73
2022-11-25T16:08:22.983Z,2.93
2022-11-25T16:10:53.959Z,3.37
2022-11-25T16:13:23.730Z,4.10
2022-11-25T16:16:12.920Z,4.26
2022-11-25T16:19:01.116Z,3.85
2022-11-25T16:21:36.392Z,3.97
2022-11-25T16:24:05.940Z,3.57
2022-11-25T16:27:05.158Z,3.68
2022-11-25T16:29:38.622Z,3.53
2022-11-25T16:32:15.699Z,3.02
2022-11-25T16:34:43.393Z,3.11
2022-11-25T16:37:10.060Z,3.32
2022-11-25T16:39:37.646Z,3.89
2022-11-25T16:42:05.238Z,3.48
2022-11-25T16:44:34.580Z,3.56
2022-11-25T16:47:01.328Z,3.54
2022-11-25T16:49:30.685Z,7.58
2022-11-25T16:51:57.527Z,8.90
2022-11-25T16:54:24.181Z,16.93
2022-11-25T16:56:54.519Z,13.78
2022-11-25T16:59:34.450Z,8.92
2022-11-25T17:02:02.267Z,5.53
2022-11-25T17:04:28.983Z,8.89
2022-11-25T17:07:24.649Z,8.12
2022-11-25T17:09:42.992Z,8.79
2022-11-25T17:12:25.789Z,10.08
2022-11-25T17:14:52.533Z,12.53
2022-11-25T17:17:25.050Z,11.61
2022-11-25T17:19:53.403Z,7.46
2022-11-25T17:22:24.340Z,7.06
2022-11-25T17:24:51.162Z,10.61
2022-11-25T17:27:25.287Z,10.68
2022-11-25T17:29:54.146Z,8.09
2022-11-25T17:32:21.355Z,9.36
2022-11-25T17:34:48.114Z,10.45
2022-11-25T17:37:18.260Z,10.74
2022-11-25T17:39:44.860Z,9.94
2022-11-25T17:42:17.917Z,8.71
2022-11-25T17:44:49.855Z,6.20
2022-11-25T17:47:19.780Z,22.99
2022-11-25T17:49:46.373Z,33.37
2022-11-25T17:52:12.971Z,35.24
2022-11-25T17:54:40.272Z,35.77
2022-11-25T17:57:14.223Z,23.59
2022-11-25T17:59:41.127Z,5.90
2022-11-25T18:02:25.683Z,8.67
2022-11-25T18:04:53.681Z,9.51
2022-11-25T18:07:20.348Z,10.18
2022-11-25T18:09:47.869Z,14.88
2022-11-25T18:12:28.015Z,29.24
2022-11-25T18:14:56.148Z,25.25
2022-11-25T18:17:23.014Z,22.82
2022-11-25T18:19:54.450Z,18.88
2022-11-25T18:22:22.765Z,17.26
2022-11-25T18:24:49.465Z,13.56
2022-11-25T18:27:28.324Z,6.27
2022-11-25T18:29:56.432Z,4.01
2022-11-25T18:32:24.329Z,3.82
2022-11-25T18:34:51.938Z,7.26
2022-11-25T18:37:18.589Z,7.50
2022-11-25T18:39:45.198Z,9.03
2022-11-25T18:42:24.668Z,5.91
2022-11-25T18:44:52.244Z,5.57
2022-11-25T18:47:18.881Z,7.52
2022-11-25T18:49:49.792Z,10.09
2022-11-25T18:52:19.062Z,14.94
2022-11-25T18:54:45.678Z,11.67
2022-11-25T18:57:15.554Z,7.54
2022-11-25T18:59:44.399Z,5.75
2022-11-25T19:02:19.789Z,6.27
2022-11-25T19:04:46.528Z,11.05
2022-11-25T19:07:13.157Z,9.32
2022-11-25T19:09:39.801Z,7.40
2022-11-25T19:12:09.983Z,6.28
2022-11-25T19:14:40.899Z,8.71
2022-11-25T19:17:19.582Z,10.29
2022-11-25T19:19:46.917Z,7.98
2022-11-25T19:22:14.933Z,7.00
2022-11-25T19:24:42.528Z,10.55
2022-11-25T19:27:21.400Z,16.67
2022-11-25T19:29:48.045Z,16.62
2022-11-25T19:32:20.456Z,12.08
2022-11-25T19:34:53.295Z,7.83
2022-11-25T19:37:22.596Z,5.68
2022-11-25T19:39:51.241Z,3.66
2022-11-25T19:42:18.359Z,3.60
2022-11-25T19:44:46.125Z,5.52
2022-11-25T19:47:33.037Z,7.10
2022-11-25T19:50:01.785Z,5.89
2022-11-25T19:52:33.662Z,5.14
2022-11-25T19:55:00.606Z,4.41
2022-11-25T19:57:27.204Z,4.51
2022-11-25T19:59:53.826Z,4.72
2022-11-25T20:02:24.360Z,4.40
2022-11-25T20:04:56.009Z,7.45
2022-11-25T20:07:23.348Z,6.60
2022-11-25T20:09:50.516Z,5.40
2022-11-25T20:12:22.244Z,6.18
2022-11-25T20:14:50.137Z,8.94
2022-11-25T20:17:24.680Z,10.09
2022-11-25T20:19:53.896Z,5.26
2022-11-25T20:22:26.808Z,6.84
2022-11-25T20:24:55.646Z,10.27
2022-11-25T20:27:27.360Z,5.29
2022-11-25T20:29:54.613Z,3.98
2022-11-25T20:32:31.050Z,2.86
2022-11-25T20:34:58.865Z,3.06
2022-11-25T20:37:29.254Z,3.66
2022-11-25T20:40:01.081Z,4.34
2022-11-25T20:42:27.670Z,2.92
2022-11-25T20:44:57.458Z,3.42
2022-11-25T20:47:24.620Z,2.98
2022-11-25T20:49:51.361Z,3.23
2022-11-25T20:52:30.957Z,3.78
2022-11-25T20:54:58.774Z,3.05
2022-11-25T20:57:25.540Z,3.33
2022-11-25T20:59:52.154Z,5.10
2022-11-25T21:02:18.808Z,3.78
2022-11-25T21:04:45.509Z,5.11
2022-11-25T21:07:16.719Z,5.15
2022-11-25T21:09:43.804Z,4.17
2022-11-25T21:12:19.354Z,4.28
2022-11-25T21:14:46.997Z,3.81
2022-11-25T21:17:13.612Z,3.39
2022-11-25T21:19:40.259Z,3.88
2022-11-25T21:22:07.386Z,3.63
2022-11-25T21:24:40.356Z,3.60
2022-11-25T21:27:14.818Z,3.22
2022-11-25T21:29:44.768Z,3.08
2022-11-25T21:32:19.613Z,3.59
2022-11-25T21:34:46.445Z,2.89
2022-11-25T21:37:13.453Z,3.02
2022-11-25T21:39:41.780Z,3.28
2022-11-25T21:42:18.577Z,4.07
2022-11-25T21:44:46.380Z,3.77
2022-11-25T21:47:22.206Z,3.50
2022-11-25T21:49:49.912Z,3.34
2022-11-25T21:52:17.775Z,3.40
2022-11-25T21:54:44.768Z,3.60
2022-11-25T21:57:27.662Z,3.05
2022-11-25T21:59:54.522Z,2.89
2022-11-25T22:02:24.362Z,3.02
2022-11-25T22:04:51.287Z,2.82
2022-11-25T22:07:17.940Z,2.53
2022-11-25T22:09:44.594Z,2.52
2022-11-25T22:12:41.179Z,2.09
2022-11-25T22:15:21.213Z,2.36
2022-11-25T22:17:50.088Z,2.37
2022-11-25T22:20:26.876Z,3.03
2022-11-25T22:22:53.917Z,2.57
2022-11-25T22:25:21.442Z,2.98
2022-11-25T22:27:48.972Z,2.49
2022-11-25T22:30:18.635Z,2.38
2022-11-25T22:32:49.137Z,2.41
2022-11-25T22:35:18.726Z,2.19
2022-11-25T22:37:50.567Z,2.21
2022-11-25T22:40:20.384Z,2.14
2022-11-25T22:42:50.987Z,2.19
2022-11-25T22:45:32.887Z,1.98
2022-11-25T22:48:04.497Z,2.29
2022-11-25T22:50:34.133Z,2.26
2022-11-25T22:53:01.685Z,2.33
2022-11-25T22:55:31.074Z,2.25
2022-11-25T22:58:00.120Z,2.14
2022-11-25T23:00:31.607Z,2.33
2022-11-25T23:03:00.327Z,2.03
2022-11-25T23:05:33.840Z,1.95
2022-11-25T23:08:16.648Z,2.15
2022-11-25T23:10:44.169Z,2.04
2022-11-25T23:13:13.994Z,2.03
2022-11-25T23:15:47.420Z,2.05
2022-11-25T23:18:25.620Z,2.03
2022-11-25T23:20:52.500Z,1.99
2022-11-25T23:23:27.124Z,1.96
2022-11-25T23:25:55.032Z,2.11
2022-11-25T23:28:22.188Z,2.16
2022-11-25T23:30:55.140Z,1.98
2022-11-25T23:33:59.528Z,2.11
2022-11-25T23:36:30.883Z,2.01
2022-11-25T23:39:03.017Z,1.96
2022-11-25T23:41:33.280Z,1.91
2022-11-25T23:44:21.644Z,1.99
2022-11-25T23:46:49.080Z,1.86
2022-11-25T23:49:26.270Z,1.75
2022-11-25T23:51:57.126Z,1.79
2022-11-25T23:54:38.100Z,1.70
2022-11-25T23:57:14.958Z,2.10
2022-11-25T23:59:42.253Z,2.34
